createdAt,value
2023-03-18T00:01:19.953Z,100.00
2023-03-18T00:03:55.557Z,100.00
2023-03-18T00:06:26.325Z,100.00
2023-03-18T00:08:57.369Z,100.00
2023-03-18T00:11:27.436Z,100.00
2023-03-18T00:13:56.748Z,100.00
2023-03-18T00:16:27.384Z,100.00
2023-03-18T00:18:59.340Z,100.00
2023-03-18T00:21:30.355Z,100.00
2023-03-18T00:24:03.679Z,100.00
2023-03-18T00:26:32.837Z,100.00
2023-03-18T00:29:05.641Z,100.00
2023-03-18T00:31:36.275Z,100.00
2023-03-18T00:34:06.325Z,100.00
2023-03-18T00:36:38.750Z,100.00
2023-03-18T00:39:09.525Z,100.00
2023-03-18T00:41:39.430Z,100.00
2023-03-18T00:44:08.664Z,100.00
2023-03-18T00:46:40.875Z,100.00
2023-03-18T00:49:14.286Z,100.00
2023-03-18T00:51:44.981Z,100.00
2023-03-18T00:54:18.218Z,100.00
2023-03-18T00:56:47.850Z,100.00
2023-03-18T00:59:18.487Z,100.00
2023-03-18T01:01:47.829Z,100.00
2023-03-18T01:04:20.974Z,100.00
2023-03-18T01:06:52.237Z,100.00
2023-03-18T01:09:24.261Z,100.00
2023-03-18T01:11:53.614Z,100.00
2023-03-18T01:14:25.053Z,100.00
2023-03-18T01:16:53.998Z,100.00
2023-03-18T01:19:24.310Z,100.00
2023-03-18T01:21:55.001Z,100.00
2023-03-18T01:24:25.497Z,100.00
2023-03-18T01:27:00.872Z,100.00
2023-03-18T01:29:31.716Z,100.00
2023-03-18T01:32:01.958Z,100.00
2023-03-18T01:34:31.350Z,100.00
2023-03-18T01:37:02.476Z,100.00
2023-03-18T01:39:35.967Z,100.00
2023-03-18T01:42:12.129Z,100.00
2023-03-18T01:45:00.008Z,100.00
2023-03-18T01:47:35.393Z,100.00
2023-03-18T01:50:04.957Z,100.00
2023-03-18T01:52:36.534Z,100.00
2023-03-18T01:55:10.623Z,100.00
2023-03-18T01:57:40.589Z,100.00
2023-03-18T02:00:11.631Z,100.00
2023-03-18T02:02:43.912Z,100.00
2023-03-18T02:05:16.486Z,100.00
2023-03-18T02:07:48.779Z,100.00
2023-03-18T02:10:21.279Z,100.00
2023-03-18T02:12:54.509Z,100.00
2023-03-18T02:15:33.265Z,100.00
2023-03-18T02:18:08.321Z,100.00
2023-03-18T02:20:54.328Z,100.00
2023-03-18T02:23:37.825Z,100.00
2023-03-18T02:26:16.521Z,100.00
2023-03-18T02:28:48.429Z,100.00
2023-03-18T02:31:19.160Z,100.00
2023-03-18T02:33:48.871Z,100.00
2023-03-18T02:36:21.097Z,100.00
2023-03-18T02:38:50.810Z,100.00
2023-03-18T02:41:28.740Z,100.00
2023-03-18T02:43:59.998Z,100.00
2023-03-18T02:46:49.726Z,100.00
2023-03-18T02:49:20.491Z,100.00
2023-03-18T02:52:06.585Z,100.00
2023-03-18T02:54:35.850Z,100.00
2023-03-18T02:57:05.675Z,100.00
2023-03-18T02:59:37.080Z,100.00
2023-03-18T03:02:08.198Z,100.00
2023-03-18T03:04:37.575Z,100.00
2023-03-18T03:07:07.747Z,100.00
2023-03-18T03:09:45.703Z,100.00
2023-03-18T03:12:15.380Z,100.00
2023-03-18T03:14:52.804Z,100.00
2023-03-18T03:17:22.836Z,100.00
2023-03-18T03:19:53.087Z,100.00
2023-03-18T03:22:24.843Z,100.00
2023-03-18T03:24:54.474Z,100.00
2023-03-18T03:27:23.640Z,100.00
2023-03-18T03:29:54.167Z,100.00
2023-03-18T03:32:23.872Z,100.00
2023-03-18T03:34:52.943Z,100.00
2023-03-18T03:37:22.067Z,100.00
2023-03-18T03:39:51.609Z,100.00
2023-03-18T03:42:21.046Z,100.00
2023-03-18T03:44:50.033Z,100.00
2023-03-18T03:47:21.422Z,100.00
2023-03-18T03:49:52.485Z,100.00
2023-03-18T03:52:22.242Z,100.00
2023-03-18T03:54:53.478Z,100.00
2023-03-18T03:57:24.300Z,100.00
2023-03-18T03:59:53.392Z,100.00
2023-03-18T04:02:43.592Z,100.00
2023-03-18T04:05:16.738Z,100.00
2023-03-18T04:07:47.475Z,100.00
2023-03-18T04:10:20.225Z,100.00
2023-03-18T04:12:50.445Z,100.00
2023-03-18T04:15:22.090Z,100.00
2023-03-18T04:17:55.599Z,100.00
2023-03-18T04:20:26.406Z,100.00
2023-03-18T04:22:55.810Z,100.00
2023-03-18T04:25:26.861Z,100.00
2023-03-18T04:27:56.636Z,100.00
2023-03-18T04:30:27.462Z,100.00
2023-03-18T04:33:04.249Z,100.00
2023-03-18T04:35:37.937Z,100.00
2023-03-18T04:38:14.109Z,100.00
2023-03-18T04:40:44.144Z,100.00
2023-03-18T04:43:13.890Z,100.00
2023-03-18T04:45:43.843Z,100.00
2023-03-18T04:48:15.898Z,100.00
2023-03-18T04:50:47.312Z,100.00
2023-03-18T04:53:22.533Z,100.00
2023-03-18T04:55:51.905Z,100.00
2023-03-18T04:58:26.288Z,100.00
2023-03-18T05:01:10.177Z,100.00
2023-03-18T05:03:43.656Z,100.00
2023-03-18T05:06:23.579Z,100.00
2023-03-18T05:09:14.873Z,100.00
2023-03-18T05:11:45.524Z,100.00
2023-03-18T05:14:29.036Z,100.00
2023-03-18T05:17:04.974Z,100.00
2023-03-18T05:19:41.139Z,100.00
2023-03-18T05:22:27.823Z,100.00
2023-03-18T05:25:19.398Z,100.00
2023-03-18T05:27:49.732Z,100.00
2023-03-18T05:30:29.127Z,100.00
2023-03-18T05:32:58.651Z,100.00
2023-03-18T05:35:45.454Z,100.00
2023-03-18T05:38:15.289Z,100.00
2023-03-18T05:40:44.779Z,100.00
2023-03-18T05:43:28.593Z,100.00
2023-03-18T05:46:08.038Z,100.00
2023-03-18T05:48:57.411Z,100.00
2023-03-18T05:51:33.822Z,100.00
2023-03-18T05:54:05.364Z,100.00
2023-03-18T05:56:43.375Z,100.00
2023-03-18T05:59:16.199Z,100.00
2023-03-18T06:01:50.253Z,100.00
2023-03-18T06:04:20.605Z,100.00
2023-03-18T06:06:51.519Z,100.00
2023-03-18T06:09:22.377Z,100.00
2023-03-18T06:11:52.088Z,100.00
2023-03-18T06:14:21.341Z,100.00
2023-03-18T06:16:50.444Z,100.00
2023-03-18T06:19:23.964Z,100.00
2023-03-18T06:21:55.120Z,100.00
2023-03-18T06:24:26.334Z,100.00
2023-03-18T06:26:57.991Z,100.00
2023-03-18T06:29:27.611Z,100.00
2023-03-18T06:32:30.242Z,100.00
2023-03-18T06:35:20.607Z,100.00
2023-03-18T06:38:02.561Z,100.00
2023-03-18T06:40:36.903Z,100.00
2023-03-18T06:43:06.945Z,100.00
2023-03-18T06:45:39.272Z,100.00
2023-03-18T06:48:12.052Z,100.00
2023-03-18T06:50:46.711Z,100.00
2023-03-18T06:53:25.395Z,100.00
2023-03-18T06:55:58.004Z,100.00
2023-03-18T06:58:32.888Z,100.00
2023-03-18T07:01:07.208Z,100.00
2023-03-18T07:03:41.565Z,100.00
2023-03-18T07:06:14.170Z,100.00
2023-03-18T07:08:47.352Z,100.00
2023-03-18T07:11:19.192Z,100.00
2023-03-18T07:13:48.690Z,100.00
2023-03-18T07:16:31.501Z,100.00
2023-03-18T07:19:07.395Z,100.00
2023-03-18T07:21:37.345Z,100.00
2023-03-18T07:24:08.529Z,100.00
2023-03-18T07:26:38.476Z,100.00
2023-03-18T07:29:14.029Z,100.00
2023-03-18T07:31:47.595Z,100.00
2023-03-18T07:34:18.016Z,100.00
2023-03-18T07:36:50.903Z,100.00
2023-03-18T07:39:21.458Z,100.00
2023-03-18T07:42:00.812Z,100.00
2023-03-18T07:44:33.026Z,100.00
2023-03-18T07:47:11.370Z,100.00
2023-03-18T07:49:49.004Z,100.00
2023-03-18T07:52:24.111Z,98.42
2023-03-18T07:54:59.950Z,100.00
2023-03-18T07:57:42.293Z,100.00
2023-03-18T08:00:21.654Z,100.00
2023-03-18T08:03:06.196Z,100.00
2023-03-18T08:05:45.348Z,100.00
2023-03-18T08:08:33.734Z,99.26
2023-03-18T08:11:16.761Z,95.13
2023-03-18T08:13:48.193Z,93.25
2023-03-18T08:16:20.408Z,94.80
2023-03-18T08:19:07.183Z,91.20
2023-03-18T08:21:50.338Z,91.15
2023-03-18T08:24:35.293Z,97.00
2023-03-18T08:27:16.252Z,92.53
2023-03-18T08:29:54.479Z,94.99
2023-03-18T08:32:24.777Z,94.89
2023-03-18T08:35:15.015Z,88.08
2023-03-18T08:37:47.403Z,85.73
2023-03-18T08:40:21.591Z,91.82
2023-03-18T08:42:55.602Z,92.54
2023-03-18T08:45:27.393Z,87.60
2023-03-18T08:48:02.030Z,88.15
2023-03-18T08:50:32.315Z,93.08
2023-03-18T08:53:18.366Z,88.22
2023-03-18T08:55:49.181Z,80.93
2023-03-18T08:58:22.028Z,83.08
2023-03-18T09:00:55.306Z,80.58
2023-03-18T09:03:25.671Z,75.21
2023-03-18T09:05:56.118Z,76.05
2023-03-18T09:08:25.906Z,83.77
2023-03-18T09:10:55.430Z,82.97
2023-03-18T09:13:26.176Z,82.24
2023-03-18T09:15:55.892Z,79.10
2023-03-18T09:18:25.333Z,92.29
2023-03-18T09:20:54.765Z,90.47
2023-03-18T09:23:24.238Z,83.23
2023-03-18T09:25:54.985Z,81.55
2023-03-18T09:28:25.406Z,96.46
2023-03-18T09:30:55.869Z,100.00
2023-03-18T09:33:26.728Z,100.00
2023-03-18T09:35:56.312Z,100.00
2023-03-18T09:38:25.988Z,100.00
2023-03-18T09:41:08.418Z,100.00
2023-03-18T09:44:10.811Z,99.12
2023-03-18T09:46:55.999Z,100.00
2023-03-18T09:49:39.169Z,100.00
2023-03-18T09:52:19.240Z,99.12
2023-03-18T09:54:59.166Z,90.76
2023-03-18T09:57:37.600Z,89.01
2023-03-18T10:00:22.136Z,86.83
2023-03-18T10:02:55.542Z,85.24
2023-03-18T10:05:31.611Z,84.29
2023-03-18T10:08:06.201Z,87.14
2023-03-18T10:10:45.254Z,87.11
2023-03-18T10:13:23.139Z,75.58
2023-03-18T10:15:57.385Z,80.11
2023-03-18T10:18:32.106Z,77.21
2023-03-18T10:21:13.908Z,67.77
2023-03-18T10:23:53.378Z,64.46
2023-03-18T10:26:28.516Z,63.95
2023-03-18T10:29:22.729Z,64.16
2023-03-18T10:32:09.546Z,64.63
2023-03-18T10:34:47.628Z,63.20
2023-03-18T10:37:25.485Z,59.62
2023-03-18T10:39:57.720Z,57.89
2023-03-18T10:42:33.312Z,58.24
2023-03-18T10:45:11.367Z,59.66
2023-03-18T10:47:51.579Z,59.63
2023-03-18T10:50:26.618Z,66.65
2023-03-18T10:53:00.481Z,65.00
2023-03-18T10:55:35.745Z,61.43
2023-03-18T10:58:16.340Z,61.91
2023-03-18T11:00:45.936Z,57.82
2023-03-18T11:03:25.109Z,58.01
2023-03-18T11:05:56.093Z,57.41
2023-03-18T11:08:37.228Z,55.08
2023-03-18T11:11:27.491Z,56.56
2023-03-18T11:14:03.021Z,54.33
2023-03-18T11:16:38.539Z,52.17
2023-03-18T11:19:27.775Z,48.67
2023-03-18T11:22:08.582Z,46.87
2023-03-18T11:24:42.653Z,44.17
2023-03-18T11:27:39.019Z,39.48
2023-03-18T11:30:38.813Z,35.77
2023-03-18T11:33:16.265Z,34.78
2023-03-18T11:35:51.979Z,33.91
2023-03-18T11:38:27.410Z,34.49
2023-03-18T11:41:08.975Z,32.91
2023-03-18T11:43:41.155Z,33.13
2023-03-18T11:46:12.376Z,32.50
2023-03-18T11:48:44.630Z,31.27
2023-03-18T11:51:40.916Z,36.59
2023-03-18T11:54:27.545Z,32.43
2023-03-18T11:57:00.190Z,32.91
2023-03-18T11:59:44.448Z,30.70
2023-03-18T12:02:28.809Z,31.06
2023-03-18T12:05:14.155Z,30.10
2023-03-18T12:07:57.497Z,30.25
2023-03-18T12:10:31.131Z,29.86
2023-03-18T12:13:07.461Z,31.57
2023-03-18T12:15:48.188Z,29.35
2023-03-18T12:18:33.518Z,29.53
2023-03-18T12:21:13.770Z,30.12
2023-03-18T12:23:58.094Z,29.19
2023-03-18T12:26:36.577Z,29.41
2023-03-18T12:29:34.027Z,29.41
2023-03-18T12:32:15.081Z,29.89
2023-03-18T12:35:09.345Z,27.53
2023-03-18T12:37:50.735Z,28.00
2023-03-18T12:40:40.952Z,27.61
2023-03-18T12:43:38.075Z,26.49
2023-03-18T12:46:18.225Z,26.62
2023-03-18T12:48:55.883Z,27.17
2023-03-18T12:51:29.669Z,26.46
2023-03-18T12:54:07.025Z,27.27
2023-03-18T12:56:43.823Z,27.55
2023-03-18T12:59:26.048Z,27.26
2023-03-18T13:02:05.254Z,26.04
2023-03-18T13:04:37.563Z,26.13
2023-03-18T13:07:16.065Z,27.71
2023-03-18T13:09:51.084Z,27.26
2023-03-18T13:12:25.289Z,26.49
2023-03-18T13:14:59.862Z,25.83
2023-03-18T13:17:34.364Z,25.81
2023-03-18T13:20:11.199Z,26.06
2023-03-18T13:23:04.456Z,25.59
2023-03-18T13:25:44.594Z,26.50
2023-03-18T13:28:35.006Z,27.37
2023-03-18T13:31:13.779Z,26.75
2023-03-18T13:34:11.220Z,26.37
2023-03-18T13:37:08.477Z,27.35
2023-03-18T13:39:55.625Z,27.39
2023-03-18T13:42:28.772Z,27.49
2023-03-18T13:45:08.735Z,26.12
2023-03-18T13:47:40.041Z,27.70
2023-03-18T13:50:30.090Z,35.17
2023-03-18T13:56:00.981Z,28.85
2023-03-18T13:58:34.871Z,27.58
2023-03-18T14:01:33.437Z,27.37
2023-03-18T14:04:30.523Z,28.47
2023-03-18T14:07:14.951Z,27.27
2023-03-18T14:09:51.352Z,30.43
2023-03-18T14:12:24.061Z,29.57
2023-03-18T14:15:05.136Z,30.79
2023-03-18T14:17:48.949Z,29.54
2023-03-18T14:20:28.651Z,26.87
2023-03-18T14:23:19.722Z,29.29
2023-03-18T14:25:54.715Z,37.14
2023-03-18T14:28:26.704Z,39.99
2023-03-18T14:31:20.928Z,39.15
2023-03-18T14:34:24.293Z,39.86
2023-03-18T14:37:29.523Z,37.45
2023-03-18T14:40:04.288Z,40.81
2023-03-18T14:42:45.906Z,43.84
2023-03-18T14:45:20.817Z,44.40
2023-03-18T14:47:53.191Z,40.61
2023-03-18T14:50:48.602Z,41.08
2023-03-18T14:53:26.834Z,44.01
2023-03-18T14:55:57.391Z,45.45
2023-03-18T14:58:28.469Z,43.68
2023-03-18T15:01:04.703Z,44.55
2023-03-18T15:03:34.993Z,44.05
2023-03-18T15:06:10.390Z,40.72
2023-03-18T15:08:51.035Z,39.33
2023-03-18T15:11:22.990Z,40.82
2023-03-18T15:13:56.872Z,41.22
2023-03-18T15:16:27.025Z,45.18
2023-03-18T15:18:57.081Z,47.47
2023-03-18T15:21:32.476Z,48.28
2023-03-18T15:24:04.648Z,49.62
2023-03-18T15:26:37.341Z,50.76
2023-03-18T15:29:25.481Z,52.25
2023-03-18T15:31:55.665Z,53.19
2023-03-18T15:34:30.774Z,54.90
2023-03-18T15:37:04.788Z,56.83
2023-03-18T15:39:37.142Z,58.29
2023-03-18T15:42:16.687Z,60.52
2023-03-18T15:45:10.101Z,62.29
2023-03-18T15:47:38.916Z,64.45
2023-03-18T15:50:25.564Z,65.87
2023-03-18T15:53:07.188Z,65.90
2023-03-18T15:55:48.128Z,68.81
2023-03-18T15:58:23.437Z,71.24
2023-03-18T16:00:56.392Z,73.39
2023-03-18T16:03:27.823Z,76.23
2023-03-18T16:05:58.294Z,77.93
2023-03-18T16:08:29.211Z,79.73
2023-03-18T16:11:04.148Z,81.34
2023-03-18T16:13:39.027Z,82.01
2023-03-18T16:16:17.458Z,82.85
2023-03-18T16:18:50.178Z,85.88
2023-03-18T16:21:20.977Z,87.10
2023-03-18T16:23:52.004Z,87.05
2023-03-18T16:26:21.703Z,88.21
2023-03-18T16:28:51.089Z,91.66
2023-03-18T16:31:20.763Z,90.60
2023-03-18T16:33:52.948Z,91.05
2023-03-18T16:36:28.522Z,91.45
2023-03-18T16:38:58.823Z,91.79
2023-03-18T16:41:27.962Z,94.18
2023-03-18T16:43:57.304Z,93.75
2023-03-18T16:46:27.945Z,95.10
2023-03-18T16:48:57.352Z,95.14
2023-03-18T16:51:28.135Z,96.31
2023-03-18T16:54:01.784Z,95.29
2023-03-18T16:56:31.624Z,96.48
2023-03-18T16:59:01.540Z,96.90
2023-03-18T17:01:31.597Z,96.06
2023-03-18T17:04:07.906Z,96.99
2023-03-18T17:06:37.252Z,98.18
2023-03-18T17:09:08.618Z,98.32
2023-03-18T17:11:38.380Z,97.97
2023-03-18T17:14:10.795Z,99.88
2023-03-18T17:16:49.264Z,100.00
2023-03-18T17:19:28.642Z,100.00
2023-03-18T17:22:00.263Z,100.00
2023-03-18T17:24:34.277Z,100.00
2023-03-18T17:27:13.064Z,100.00
2023-03-18T17:29:42.600Z,100.00
2023-03-18T17:32:12.093Z,100.00
2023-03-18T17:34:41.113Z,100.00
2023-03-18T17:37:10.383Z,100.00
2023-03-18T17:39:40.823Z,100.00
2023-03-18T17:42:31.023Z,100.00
2023-03-18T17:45:06.956Z,100.00
2023-03-18T17:47:48.153Z,100.00
2023-03-18T17:50:18.520Z,100.00
2023-03-18T17:53:02.894Z,100.00
2023-03-18T17:55:33.920Z,100.00
2023-03-18T17:58:03.429Z,100.00
2023-03-18T18:00:34.714Z,100.00
2023-03-18T18:03:07.070Z,100.00
2023-03-18T18:05:41.551Z,100.00
2023-03-18T18:08:20.113Z,100.00
2023-03-18T18:10:52.288Z,100.00
2023-03-18T18:13:25.047Z,100.00
2023-03-18T18:15:54.509Z,100.00
2023-03-18T18:18:32.385Z,100.00
2023-03-18T18:21:04.104Z,100.00
2023-03-18T18:23:35.653Z,100.00
2023-03-18T18:26:08.487Z,100.00
2023-03-18T18:28:40.049Z,100.00
2023-03-18T18:31:10.909Z,100.00
2023-03-18T18:33:41.593Z,100.00
2023-03-18T18:36:12.442Z,100.00
2023-03-18T18:38:43.300Z,100.00
2023-03-18T18:41:14.731Z,100.00
2023-03-18T18:43:47.166Z,100.00
2023-03-18T18:46:18.385Z,100.00
2023-03-18T18:48:53.603Z,100.00
2023-03-18T18:51:41.262Z,100.00
2023-03-18T18:54:11.362Z,100.00
2023-03-18T18:56:43.687Z,100.00
2023-03-18T18:59:41.807Z,100.00
2023-03-18T19:02:29.269Z,100.00
2023-03-18T19:05:00.077Z,100.00
2023-03-18T19:07:30.260Z,100.00
2023-03-18T19:10:00.220Z,100.00
2023-03-18T19:12:35.838Z,100.00
2023-03-18T19:15:09.653Z,100.00
2023-03-18T19:17:47.621Z,100.00
2023-03-18T19:20:30.275Z,100.00
2023-03-18T19:23:01.118Z,100.00
2023-03-18T19:25:34.355Z,100.00
2023-03-18T19:28:10.669Z,100.00
2023-03-18T19:30:40.120Z,100.00
2023-03-18T19:33:16.953Z,100.00
2023-03-18T19:35:47.360Z,100.00
2023-03-18T19:38:21.443Z,100.00
2023-03-18T19:40:52.991Z,100.00
2023-03-18T19:43:24.454Z,100.00
2023-03-18T19:45:53.989Z,100.00
2023-03-18T19:48:29.140Z,100.00
2023-03-18T19:51:01.451Z,100.00
2023-03-18T19:53:39.856Z,100.00
2023-03-18T19:56:25.653Z,100.00
2023-03-18T19:59:01.826Z,100.00
2023-03-18T20:01:31.786Z,100.00
2023-03-18T20:04:01.410Z,100.00
2023-03-18T20:06:30.706Z,100.00
2023-03-18T20:09:01.197Z,100.00
2023-03-18T20:11:30.684Z,100.00
2023-03-18T20:14:01.645Z,100.00
2023-03-18T20:16:32.461Z,100.00
2023-03-18T20:19:01.732Z,100.00
2023-03-18T20:21:35.771Z,100.00
2023-03-18T20:24:09.015Z,100.00
2023-03-18T20:26:41.462Z,100.00
2023-03-18T20:29:18.000Z,100.00
2023-03-18T20:31:48.160Z,100.00
2023-03-18T20:34:20.404Z,100.00
2023-03-18T20:36:49.859Z,100.00
2023-03-18T20:39:24.342Z,100.00
2023-03-18T20:41:53.847Z,100.00
2023-03-18T20:44:24.998Z,100.00
2023-03-18T20:46:57.565Z,100.00
2023-03-18T20:49:28.311Z,100.00
2023-03-18T20:51:57.466Z,100.00
2023-03-18T20:54:35.162Z,100.00
2023-03-18T20:57:04.545Z,100.00
2023-03-18T20:59:35.189Z,100.00
2023-03-18T21:02:04.305Z,100.00
2023-03-18T21:04:42.471Z,100.00
2023-03-18T21:07:14.713Z,100.00
2023-03-18T21:09:45.132Z,100.00
2023-03-18T21:12:18.047Z,100.00
2023-03-18T21:14:49.064Z,100.00
2023-03-18T21:17:22.233Z,100.00
2023-03-18T21:20:04.982Z,100.00
2023-03-18T21:22:44.213Z,100.00
2023-03-18T21:25:19.792Z,100.00
2023-03-18T21:27:49.271Z,100.00
2023-03-18T21:30:22.642Z,100.00
2023-03-18T21:32:55.063Z,100.00
2023-03-18T21:35:25.833Z,100.00
2023-03-18T21:37:59.766Z,100.00
2023-03-18T21:40:32.138Z,100.00
2023-03-18T21:43:01.316Z,100.00
2023-03-18T21:45:32.142Z,100.00
2023-03-18T21:48:01.645Z,100.00
2023-03-18T21:50:33.672Z,100.00
2023-03-18T21:53:03.687Z,100.00
2023-03-18T21:55:32.957Z,100.00
2023-03-18T21:58:02.430Z,100.00
2023-03-18T22:00:32.758Z,100.00
2023-03-18T22:03:02.266Z,100.00
2023-03-18T22:05:32.204Z,100.00
2023-03-18T22:08:01.598Z,100.00
2023-03-18T22:10:33.685Z,100.00
2023-03-18T22:13:03.266Z,100.00
2023-03-18T22:15:39.453Z,100.00
2023-03-18T22:18:08.616Z,100.00
2023-03-18T22:20:38.753Z,100.00
2023-03-18T22:23:15.003Z,100.00
2023-03-18T22:25:48.337Z,100.00
2023-03-18T22:28:17.785Z,100.00
2023-03-18T22:30:52.073Z,100.00
2023-03-18T22:33:24.932Z,100.00
2023-03-18T22:35:54.719Z,100.00
2023-03-18T22:38:25.133Z,100.00
2023-03-18T22:40:57.394Z,100.00
2023-03-18T22:43:32.396Z,100.00
2023-03-18T22:46:11.656Z,100.00
2023-03-18T22:48:44.418Z,100.00
2023-03-18T22:51:22.931Z,100.00
2023-03-18T22:53:57.802Z,100.00
2023-03-18T22:56:27.022Z,100.00
2023-03-18T22:58:57.934Z,100.00
2023-03-18T23:01:32.074Z,100.00
2023-03-18T23:04:01.414Z,100.00
2023-03-18T23:06:30.545Z,100.00
2023-03-18T23:08:59.968Z,100.00
2023-03-18T23:11:30.659Z,100.00
2023-03-18T23:14:02.575Z,100.00
2023-03-18T23:16:33.074Z,100.00
2023-03-18T23:19:02.448Z,100.00
2023-03-18T23:21:31.839Z,100.00
2023-03-18T23:24:02.229Z,100.00
2023-03-18T23:26:31.414Z,100.00
2023-03-18T23:29:00.669Z,100.00
2023-03-18T23:31:29.879Z,100.00
2023-03-18T23:34:00.547Z,100.00
2023-03-18T23:36:29.718Z,100.00
2023-03-18T23:38:58.944Z,100.00
2023-03-18T23:41:29.516Z,100.00
2023-03-18T23:43:58.600Z,100.00
2023-03-18T23:46:27.777Z,100.00
2023-03-18T23:48:57.390Z,100.00
2023-03-18T23:51:27.892Z,100.00
2023-03-18T23:53:59.996Z,100.00
2023-03-18T23:56:29.096Z,100.00
2023-03-18T23:58:58.407Z,100.00
